sensor_id;sensor_type;location;lat;lon;timestamp;temperature;humidity
48860;DHT22;34679;51.436;-2.518;2022-07-30T00:01:40;17.80;99.90
48860;DHT22;34679;51.436;-2.518;2022-07-30T00:04:06;17.70;99.90
48860;DHT22;34679;51.436;-2.518;2022-07-30T00:06:31;17.60;99.90
48860;DHT22;34679;51.436;-2.518;2022-07-30T00:08:57;17.60;99.90
48860;DHT22;34679;51.436;-2.518;2022-07-30T00:11:23;17.60;99.90
48860;DHT22;34679;51.436;-2.518;2022-07-30T00:13:48;17.60;99.90
48860;DHT22;34679;51.436;-2.518;2022-07-30T00:16:14;17.60;99.90
48860;DHT22;34679;51.436;-2.518;2022-07-30T00:18:40;17.60;99.90
48860;DHT22;34679;51.436;-2.518;2022-07-30T00:21:05;17.60;99.90
48860;DHT22;34679;51.436;-2.518;2022-07-30T00:23:31;17.80;99.90
48860;DHT22;34679;51.436;-2.518;2022-07-30T00:25:56;17.50;99.90
48860;DHT22;34679;51.436;-2.518;2022-07-30T00:28:22;17.50;99.90
48860;DHT22;34679;51.436;-2.518;2022-07-30T00:30:48;17.40;99.90
48860;DHT22;34679;51.436;-2.518;2022-07-30T00:33:13;17.40;99.90
48860;DHT22;34679;51.436;-2.518;2022-07-30T00:35:39;17.40;99.90
48860;DHT22;34679;51.436;-2.518;2022-07-30T00:38:04;17.30;99.90
48860;DHT22;34679;51.436;-2.518;2022-07-30T00:40:30;17.30;99.90
48860;DHT22;34679;51.436;-2.518;2022-07-30T00:42:55;17.30;99.90
48860;DHT22;34679;51.436;-2.518;2022-07-30T00:45:21;17.40;99.90
48860;DHT22;34679;51.436;-2.518;2022-07-30T00:47:46;17.30;99.90
48860;DHT22;34679;51.436;-2.518;2022-07-30T00:50:12;17.30;99.90
48860;DHT22;34679;51.436;-2.518;2022-07-30T00:52:38;17.40;99.90
48860;DHT22;34679;51.436;-2.518;2022-07-30T00:55:05;17.40;99.90
48860;DHT22;34679;51.436;-2.518;2022-07-30T00:57:31;17.30;99.90
48860;DHT22;34679;51.436;-2.518;2022-07-30T00:59:56;17.30;99.90
48860;DHT22;34679;51.436;-2.518;2022-07-30T01:02:22;17.20;99.90
48860;DHT22;34679;51.436;-2.518;2022-07-30T01:04:48;17.20;99.90
48860;DHT22;34679;51.436;-2.518;2022-07-30T01:07:14;17.10;99.90
48860;DHT22;34679;51.436;-2.518;2022-07-30T01:09:39;17.10;99.90
48860;DHT22;34679;51.436;-2.518;2022-07-30T01:12:05;17.10;99.90
48860;DHT22;34679;51.436;-2.518;2022-07-30T01:14:35;17.10;99.90
48860;DHT22;34679;51.436;-2.518;2022-07-30T01:17:01;17.00;99.90
48860;DHT22;34679;51.436;-2.518;2022-07-30T01:19:27;17.00;99.90
48860;DHT22;34679;51.436;-2.518;2022-07-30T01:27:40;17.00;99.90
48860;DHT22;34679;51.436;-2.518;2022-07-30T01:30:07;16.90;99.90
48860;DHT22;34679;51.436;-2.518;2022-07-30T01:32:33;16.90;99.90
48860;DHT22;34679;51.436;-2.518;2022-07-30T01:35:01;16.90;99.90
48860;DHT22;34679;51.436;-2.518;2022-07-30T01:37:28;16.80;99.90
48860;DHT22;34679;51.436;-2.518;2022-07-30T01:39:54;16.80;99.90
48860;DHT22;34679;51.436;-2.518;2022-07-30T01:42:20;16.80;99.90
48860;DHT22;34679;51.436;-2.518;2022-07-30T01:44:48;16.70;99.90
48860;DHT22;34679;51.436;-2.518;2022-07-30T01:47:14;16.70;99.90
48860;DHT22;34679;51.436;-2.518;2022-07-30T01:49:40;16.70;99.90
48860;DHT22;34679;51.436;-2.518;2022-07-30T01:52:06;16.60;99.90
48860;DHT22;34679;51.436;-2.518;2022-07-30T01:54:32;16.60;99.90
48860;DHT22;34679;51.436;-2.518;2022-07-30T01:56:59;16.50;99.90
48860;DHT22;34679;51.436;-2.518;2022-07-30T01:59:25;16.50;99.90
48860;DHT22;34679;51.436;-2.518;2022-07-30T02:01:52;16.50;99.90
48860;DHT22;34679;51.436;-2.518;2022-07-30T02:04:18;16.40;99.90
48860;DHT22;34679;51.436;-2.518;2022-07-30T02:07:05;16.50;99.90
48860;DHT22;34679;51.436;-2.518;2022-07-30T02:09:34;16.50;99.90
48860;DHT22;34679;51.436;-2.518;2022-07-30T02:12:00;16.40;99.90
48860;DHT22;34679;51.436;-2.518;2022-07-30T02:14:47;16.40;99.90
48860;DHT22;34679;51.436;-2.518;2022-07-30T02:17:15;16.20;99.90
48860;DHT22;34679;51.436;-2.518;2022-07-30T02:19:42;16.30;99.90
48860;DHT22;34679;51.436;-2.518;2022-07-30T02:22:10;16.30;99.90
48860;DHT22;34679;51.436;-2.518;2022-07-30T02:24:37;16.30;99.90
48860;DHT22;34679;51.436;-2.518;2022-07-30T02:27:07;16.20;99.90
48860;DHT22;34679;51.436;-2.518;2022-07-30T02:29:34;16.10;99.90
48860;DHT22;34679;51.436;-2.518;2022-07-30T02:32:02;16.10;99.90
48860;DHT22;34679;51.436;-2.518;2022-07-30T02:34:30;16.00;99.90
48860;DHT22;34679;51.436;-2.518;2022-07-30T02:36:57;15.90;99.90
48860;DHT22;34679;51.436;-2.518;2022-07-30T02:39:22;15.90;99.90
48860;DHT22;34679;51.436;-2.518;2022-07-30T02:41:49;15.80;99.90
48860;DHT22;34679;51.436;-2.518;2022-07-30T02:44:17;15.80;99.90
48860;DHT22;34679;51.436;-2.518;2022-07-30T02:46:43;15.80;99.90
48860;DHT22;34679;51.436;-2.518;2022-07-30T02:49:09;15.80;99.90
48860;DHT22;34679;51.436;-2.518;2022-07-30T02:51:36;15.70;99.90
48860;DHT22;34679;51.436;-2.518;2022-07-30T02:54:02;15.70;99.90
48860;DHT22;34679;51.436;-2.518;2022-07-30T02:56:28;15.80;99.90
48860;DHT22;34679;51.436;-2.518;2022-07-30T02:58:54;15.70;99.90
48860;DHT22;34679;51.436;-2.518;2022-07-30T03:01:21;15.60;99.90
48860;DHT22;34679;51.436;-2.518;2022-07-30T03:03:47;15.70;99.90
48860;DHT22;34679;51.436;-2.518;2022-07-30T03:06:14;15.60;99.90
48860;DHT22;34679;51.436;-2.518;2022-07-30T03:08:43;15.60;99.90
48860;DHT22;34679;51.436;-2.518;2022-07-30T03:11:10;15.50;99.90
48860;DHT22;34679;51.436;-2.518;2022-07-30T03:13:35;15.40;99.90
48860;DHT22;34679;51.436;-2.518;2022-07-30T03:16:01;15.40;99.90
48860;DHT22;34679;51.436;-2.518;2022-07-30T03:18:30;15.40;99.90
48860;DHT22;34679;51.436;-2.518;2022-07-30T03:20:57;15.30;99.90
48860;DHT22;34679;51.436;-2.518;2022-07-30T03:23:23;15.30;99.90
48860;DHT22;34679;51.436;-2.518;2022-07-30T03:25:51;15.20;99.90
48860;DHT22;34679;51.436;-2.518;2022-07-30T03:28:18;15.20;99.90
48860;DHT22;34679;51.436;-2.518;2022-07-30T03:30:44;15.20;99.90
48860;DHT22;34679;51.436;-2.518;2022-07-30T03:33:10;15.20;99.90
48860;DHT22;34679;51.436;-2.518;2022-07-30T03:35:36;15.20;99.90
48860;DHT22;34679;51.436;-2.518;2022-07-30T03:38:02;15.20;99.90
48860;DHT22;34679;51.436;-2.518;2022-07-30T03:40:28;15.20;99.90
48860;DHT22;34679;51.436;-2.518;2022-07-30T03:42:54;15.20;99.90
48860;DHT22;34679;51.436;-2.518;2022-07-30T03:45:20;15.30;99.90
48860;DHT22;34679;51.436;-2.518;2022-07-30T03:47:45;15.20;99.90
48860;DHT22;34679;51.436;-2.518;2022-07-30T03:50:12;15.20;99.90
48860;DHT22;34679;51.436;-2.518;2022-07-30T03:52:39;15.10;99.90
48860;DHT22;34679;51.436;-2.518;2022-07-30T03:55:06;15.00;99.90
48860;DHT22;34679;51.436;-2.518;2022-07-30T03:57:31;15.00;99.90
48860;DHT22;34679;51.436;-2.518;2022-07-30T03:59:57;15.00;99.90
48860;DHT22;34679;51.436;-2.518;2022-07-30T04:02:23;15.00;99.90
48860;DHT22;34679;51.436;-2.518;2022-07-30T04:04:49;15.00;99.90
48860;DHT22;34679;51.436;-2.518;2022-07-30T04:07:14;15.00;99.90
48860;DHT22;34679;51.436;-2.518;2022-07-30T04:09:40;15.00;99.90
48860;DHT22;34679;51.436;-2.518;2022-07-30T04:12:05;15.00;99.90
48860;DHT22;34679;51.436;-2.518;2022-07-30T04:14:38;15.00;99.90
48860;DHT22;34679;51.436;-2.518;2022-07-30T04:17:05;15.00;99.90
48860;DHT22;34679;51.436;-2.518;2022-07-30T04:20:07;15.10;99.90
48860;DHT22;34679;51.436;-2.518;2022-07-30T04:22:29;15.10;99.90
48860;DHT22;34679;51.436;-2.518;2022-07-30T04:24:56;15.10;99.90
48860;DHT22;34679;51.436;-2.518;2022-07-30T04:27:23;15.10;99.90
48860;DHT22;34679;51.436;-2.518;2022-07-30T04:29:50;15.20;99.90
48860;DHT22;34679;51.436;-2.518;2022-07-30T04:32:17;15.20;99.90
48860;DHT22;34679;51.436;-2.518;2022-07-30T04:34:46;15.20;99.90
48860;DHT22;34679;51.436;-2.518;2022-07-30T04:37:13;15.30;99.90
48860;DHT22;34679;51.436;-2.518;2022-07-30T04:39:39;15.30;99.90
48860;DHT22;34679;51.436;-2.518;2022-07-30T04:42:05;15.40;99.90
48860;DHT22;34679;51.436;-2.518;2022-07-30T04:44:30;15.50;99.90
48860;DHT22;34679;51.436;-2.518;2022-07-30T04:46:56;15.50;99.90
48860;DHT22;34679;51.436;-2.518;2022-07-30T04:49:21;15.40;99.90
48860;DHT22;34679;51.436;-2.518;2022-07-30T04:51:47;15.30;99.90
48860;DHT22;34679;51.436;-2.518;2022-07-30T04:54:13;15.30;99.90
48860;DHT22;34679;51.436;-2.518;2022-07-30T04:56:40;15.30;99.90
48860;DHT22;34679;51.436;-2.518;2022-07-30T04:59:06;15.30;99.90
48860;DHT22;34679;51.436;-2.518;2022-07-30T05:01:33;15.30;99.90
48860;DHT22;34679;51.436;-2.518;2022-07-30T05:04:00;15.30;99.90
48860;DHT22;34679;51.436;-2.518;2022-07-30T05:06:26;15.40;99.90
48860;DHT22;34679;51.436;-2.518;2022-07-30T05:08:52;15.50;99.90
48860;DHT22;34679;51.436;-2.518;2022-07-30T05:11:17;15.50;99.90
48860;DHT22;34679;51.436;-2.518;2022-07-30T05:13:43;15.50;99.90
48860;DHT22;34679;51.436;-2.518;2022-07-30T05:16:09;15.50;99.90
48860;DHT22;34679;51.436;-2.518;2022-07-30T05:18:36;15.60;99.90
48860;DHT22;34679;51.436;-2.518;2022-07-30T05:21:02;15.70;99.90
48860;DHT22;34679;51.436;-2.518;2022-07-30T05:23:28;15.80;99.90
48860;DHT22;34679;51.436;-2.518;2022-07-30T05:25:53;15.80;99.90
48860;DHT22;34679;51.436;-2.518;2022-07-30T05:28:19;15.80;99.90
48860;DHT22;34679;51.436;-2.518;2022-07-30T05:30:44;15.80;99.90
48860;DHT22;34679;51.436;-2.518;2022-07-30T05:33:10;15.90;99.90
48860;DHT22;34679;51.436;-2.518;2022-07-30T05:35:35;15.90;99.90
48860;DHT22;34679;51.436;-2.518;2022-07-30T05:38:01;16.00;99.90
48860;DHT22;34679;51.436;-2.518;2022-07-30T05:40:27;16.10;99.90
48860;DHT22;34679;51.436;-2.518;2022-07-30T05:42:52;16.20;99.90
48860;DHT22;34679;51.436;-2.518;2022-07-30T05:45:18;16.30;99.90
48860;DHT22;34679;51.436;-2.518;2022-07-30T05:47:43;16.40;99.90
48860;DHT22;34679;51.436;-2.518;2022-07-30T05:50:09;16.50;99.90
48860;DHT22;34679;51.436;-2.518;2022-07-30T05:52:34;16.60;99.90
48860;DHT22;34679;51.436;-2.518;2022-07-30T05:55:00;16.70;99.90
48860;DHT22;34679;51.436;-2.518;2022-07-30T05:57:25;16.90;99.90
48860;DHT22;34679;51.436;-2.518;2022-07-30T05:59:51;16.90;99.90
48860;DHT22;34679;51.436;-2.518;2022-07-30T06:02:17;17.00;99.90
48860;DHT22;34679;51.436;-2.518;2022-07-30T06:04:42;17.00;99.90
48860;DHT22;34679;51.436;-2.518;2022-07-30T06:07:08;17.00;99.90
48860;DHT22;34679;51.436;-2.518;2022-07-30T06:09:33;17.00;99.90
48860;DHT22;34679;51.436;-2.518;2022-07-30T06:11:59;17.20;99.90
48860;DHT22;34679;51.436;-2.518;2022-07-30T06:14:25;17.30;99.90
48860;DHT22;34679;51.436;-2.518;2022-07-30T06:16:50;17.30;99.90
48860;DHT22;34679;51.436;-2.518;2022-07-30T06:19:16;17.40;99.90
48860;DHT22;34679;51.436;-2.518;2022-07-30T06:21:42;17.40;99.90
48860;DHT22;34679;51.436;-2.518;2022-07-30T06:24:07;17.50;99.90
48860;DHT22;34679;51.436;-2.518;2022-07-30T06:26:33;17.50;99.90
48860;DHT22;34679;51.436;-2.518;2022-07-30T06:28:58;17.60;99.90
48860;DHT22;34679;51.436;-2.518;2022-07-30T06:31:24;17.60;99.90
48860;DHT22;34679;51.436;-2.518;2022-07-30T06:33:49;17.60;99.90
48860;DHT22;34679;51.436;-2.518;2022-07-30T06:36:16;17.60;99.90
48860;DHT22;34679;51.436;-2.518;2022-07-30T06:38:41;17.70;99.90
48860;DHT22;34679;51.436;-2.518;2022-07-30T06:41:07;17.70;99.90
48860;DHT22;34679;51.436;-2.518;2022-07-30T06:43:33;17.70;99.90
48860;DHT22;34679;51.436;-2.518;2022-07-30T06:45:58;17.70;99.90
48860;DHT22;34679;51.436;-2.518;2022-07-30T06:48:24;17.70;99.90
48860;DHT22;34679;51.436;-2.518;2022-07-30T06:50:49;17.80;99.90
48860;DHT22;34679;51.436;-2.518;2022-07-30T06:53:15;17.80;99.90
48860;DHT22;34679;51.436;-2.518;2022-07-30T06:55:41;17.80;99.90
48860;DHT22;34679;51.436;-2.518;2022-07-30T06:58:06;17.80;99.90
48860;DHT22;34679;51.436;-2.518;2022-07-30T07:00:32;17.90;99.90
48860;DHT22;34679;51.436;-2.518;2022-07-30T07:02:57;17.90;99.90
48860;DHT22;34679;51.436;-2.518;2022-07-30T07:05:23;18.10;99.90
48860;DHT22;34679;51.436;-2.518;2022-07-30T07:07:49;18.10;99.90
48860;DHT22;34679;51.436;-2.518;2022-07-30T07:10:15;18.30;99.90
48860;DHT22;34679;51.436;-2.518;2022-07-30T07:12:40;18.40;99.90
48860;DHT22;34679;51.436;-2.518;2022-07-30T07:15:06;18.40;99.90
48860;DHT22;34679;51.436;-2.518;2022-07-30T07:17:32;18.40;99.90
48860;DHT22;34679;51.436;-2.518;2022-07-30T07:19:57;18.30;99.90
48860;DHT22;34679;51.436;-2.518;2022-07-30T07:22:23;18.20;99.90
48860;DHT22;34679;51.436;-2.518;2022-07-30T07:24:48;18.20;99.90
48860;DHT22;34679;51.436;-2.518;2022-07-30T07:27:14;18.20;99.90
48860;DHT22;34679;51.436;-2.518;2022-07-30T07:29:40;18.30;99.90
48860;DHT22;34679;51.436;-2.518;2022-07-30T07:32:05;18.40;99.90
48860;DHT22;34679;51.436;-2.518;2022-07-30T07:34:31;18.50;99.90
48860;DHT22;34679;51.436;-2.518;2022-07-30T07:36:56;18.50;99.90
48860;DHT22;34679;51.436;-2.518;2022-07-30T07:39:22;18.60;99.90
48860;DHT22;34679;51.436;-2.518;2022-07-30T07:41:47;18.70;99.90
48860;DHT22;34679;51.436;-2.518;2022-07-30T07:44:13;18.70;99.90
48860;DHT22;34679;51.436;-2.518;2022-07-30T07:46:38;18.60;99.90
48860;DHT22;34679;51.436;-2.518;2022-07-30T07:49:04;18.60;99.90
48860;DHT22;34679;51.436;-2.518;2022-07-30T07:51:31;18.60;99.90
48860;DHT22;34679;51.436;-2.518;2022-07-30T07:53:56;18.60;99.90
48860;DHT22;34679;51.436;-2.518;2022-07-30T07:56:22;18.50;99.90
48860;DHT22;34679;51.436;-2.518;2022-07-30T07:58:48;18.50;99.90
48860;DHT22;34679;51.436;-2.518;2022-07-30T08:01:18;18.40;99.90
48860;DHT22;34679;51.436;-2.518;2022-07-30T08:03:44;18.40;99.90
48860;DHT22;34679;51.436;-2.518;2022-07-30T08:06:09;18.50;99.90
48860;DHT22;34679;51.436;-2.518;2022-07-30T08:08:35;18.50;99.90
48860;DHT22;34679;51.436;-2.518;2022-07-30T08:11:01;18.70;99.90
48860;DHT22;34679;51.436;-2.518;2022-07-30T08:13:27;18.80;99.90
48860;DHT22;34679;51.436;-2.518;2022-07-30T08:15:52;19.00;99.90
48860;DHT22;34679;51.436;-2.518;2022-07-30T08:18:18;19.30;99.90
48860;DHT22;34679;51.436;-2.518;2022-07-30T08:20:43;19.60;99.90
48860;DHT22;34679;51.436;-2.518;2022-07-30T08:23:09;19.60;99.90
48860;DHT22;34679;51.436;-2.518;2022-07-30T08:25:35;19.70;99.90
48860;DHT22;34679;51.436;-2.518;2022-07-30T08:28:00;20.00;99.90
48860;DHT22;34679;51.436;-2.518;2022-07-30T08:30:27;20.30;99.90
48860;DHT22;34679;51.436;-2.518;2022-07-30T08:32:53;20.70;99.90
48860;DHT22;34679;51.436;-2.518;2022-07-30T08:35:19;21.30;99.90
48860;DHT22;34679;51.436;-2.518;2022-07-30T08:37:44;21.70;99.90
48860;DHT22;34679;51.436;-2.518;2022-07-30T08:40:10;21.90;99.90
48860;DHT22;34679;51.436;-2.518;2022-07-30T08:42:36;22.40;99.90
48860;DHT22;34679;51.436;-2.518;2022-07-30T08:45:02;22.50;99.90
48860;DHT22;34679;51.436;-2.518;2022-07-30T08:47:30;22.70;99.90
48860;DHT22;34679;51.436;-2.518;2022-07-30T08:49:56;22.90;99.90
48860;DHT22;34679;51.436;-2.518;2022-07-30T08:52:26;22.70;99.90
48860;DHT22;34679;51.436;-2.518;2022-07-30T08:54:52;22.60;99.90
48860;DHT22;34679;51.436;-2.518;2022-07-30T08:57:18;22.30;99.90
48860;DHT22;34679;51.436;-2.518;2022-07-30T08:59:43;22.20;99.90
48860;DHT22;34679;51.436;-2.518;2022-07-30T09:02:09;22.30;99.90
48860;DHT22;34679;51.436;-2.518;2022-07-30T09:04:35;22.40;99.90
48860;DHT22;34679;51.436;-2.518;2022-07-30T09:07:00;22.50;99.90
48860;DHT22;34679;51.436;-2.518;2022-07-30T09:09:26;22.40;99.90
48860;DHT22;34679;51.436;-2.518;2022-07-30T09:11:52;22.30;99.90
48860;DHT22;34679;51.436;-2.518;2022-07-30T09:14:18;22.30;99.90
48860;DHT22;34679;51.436;-2.518;2022-07-30T09:16:43;22.20;99.90
48860;DHT22;34679;51.436;-2.518;2022-07-30T09:19:11;22.00;99.90
48860;DHT22;34679;51.436;-2.518;2022-07-30T09:21:36;22.20;99.90
48860;DHT22;34679;51.436;-2.518;2022-07-30T09:24:06;22.20;99.90
48860;DHT22;34679;51.436;-2.518;2022-07-30T09:29:27;22.60;99.90
48860;DHT22;34679;51.436;-2.518;2022-07-30T09:34:22;23.70;99.90
48860;DHT22;34679;51.436;-2.518;2022-07-30T09:36:48;24.10;99.90
48860;DHT22;34679;51.436;-2.518;2022-07-30T09:39:13;23.90;99.90
48860;DHT22;34679;51.436;-2.518;2022-07-30T09:41:39;23.70;99.90
48860;DHT22;34679;51.436;-2.518;2022-07-30T09:44:06;23.70;99.90
48860;DHT22;34679;51.436;-2.518;2022-07-30T09:49:20;23.40;99.90
48860;DHT22;34679;51.436;-2.518;2022-07-30T09:51:45;23.20;99.90
48860;DHT22;34679;51.436;-2.518;2022-07-30T09:54:11;23.10;99.90
48860;DHT22;34679;51.436;-2.518;2022-07-30T09:56:37;23.10;99.90
48860;DHT22;34679;51.436;-2.518;2022-07-30T09:59:04;23.10;99.90
48860;DHT22;34679;51.436;-2.518;2022-07-30T10:04:22;23.20;99.90
48860;DHT22;34679;51.436;-2.518;2022-07-30T10:06:48;23.30;99.90
48860;DHT22;34679;51.436;-2.518;2022-07-30T10:09:23;23.50;99.90
48860;DHT22;34679;51.436;-2.518;2022-07-30T10:11:48;23.40;99.90
48860;DHT22;34679;51.436;-2.518;2022-07-30T10:14:14;23.00;99.90
48860;DHT22;34679;51.436;-2.518;2022-07-30T10:16:40;22.70;99.90
48860;DHT22;34679;51.436;-2.518;2022-07-30T10:19:05;22.50;99.90
48860;DHT22;34679;51.436;-2.518;2022-07-30T10:21:31;22.20;99.90
48860;DHT22;34679;51.436;-2.518;2022-07-30T10:23:57;22.00;99.90
48860;DHT22;34679;51.436;-2.518;2022-07-30T10:26:23;21.80;99.90
48860;DHT22;34679;51.436;-2.518;2022-07-30T10:28:48;21.60;99.90
48860;DHT22;34679;51.436;-2.518;2022-07-30T10:31:15;21.70;99.90
48860;DHT22;34679;51.436;-2.518;2022-07-30T10:33:40;21.70;99.90
48860;DHT22;34679;51.436;-2.518;2022-07-30T10:36:09;21.70;99.90
48860;DHT22;34679;51.436;-2.518;2022-07-30T10:38:35;21.70;99.90
48860;DHT22;34679;51.436;-2.518;2022-07-30T10:46:12;21.70;99.90
48860;DHT22;34679;51.436;-2.518;2022-07-30T10:48:40;21.80;99.90
48860;DHT22;34679;51.436;-2.518;2022-07-30T10:51:06;21.90;99.90
48860;DHT22;34679;51.436;-2.518;2022-07-30T10:53:38;22.00;99.90
48860;DHT22;34679;51.436;-2.518;2022-07-30T10:56:20;22.10;99.90
48860;DHT22;34679;51.436;-2.518;2022-07-30T10:58:55;22.30;99.90
48860;DHT22;34679;51.436;-2.518;2022-07-30T11:01:21;22.20;99.90
48860;DHT22;34679;51.436;-2.518;2022-07-30T11:04:16;22.10;99.90
48860;DHT22;34679;51.436;-2.518;2022-07-30T11:06:32;22.10;99.90
48860;DHT22;34679;51.436;-2.518;2022-07-30T11:08:58;21.80;99.90
48860;DHT22;34679;51.436;-2.518;2022-07-30T11:13:50;21.70;99.90
48860;DHT22;34679;51.436;-2.518;2022-07-30T11:16:17;21.80;99.90
48860;DHT22;34679;51.436;-2.518;2022-07-30T11:21:28;21.70;99.90
48860;DHT22;34679;51.436;-2.518;2022-07-30T11:23:54;22.00;99.90
48860;DHT22;34679;51.436;-2.518;2022-07-30T11:26:53;22.10;99.90
48860;DHT22;34679;51.436;-2.518;2022-07-30T11:31:56;22.00;99.90
48860;DHT22;34679;51.436;-2.518;2022-07-30T11:44:52;22.70;99.90
48860;DHT22;34679;51.436;-2.518;2022-07-30T11:47:18;22.90;99.90
48860;DHT22;34679;51.436;-2.518;2022-07-30T11:49:47;22.90;99.90
48860;DHT22;34679;51.436;-2.518;2022-07-30T11:52:12;22.60;99.90
48860;DHT22;34679;51.436;-2.518;2022-07-30T11:54:50;22.30;99.90
48860;DHT22;34679;51.436;-2.518;2022-07-30T11:57:16;22.50;99.90
48860;DHT22;34679;51.436;-2.518;2022-07-30T11:59:57;22.90;99.90
48860;DHT22;34679;51.436;-2.518;2022-07-30T12:02:26;23.50;99.90
48860;DHT22;34679;51.436;-2.518;2022-07-30T12:04:52;23.40;99.90
48860;DHT22;34679;51.436;-2.518;2022-07-30T12:07:22;23.30;99.90
48860;DHT22;34679;51.436;-2.518;2022-07-30T12:09:47;23.10;99.90
48860;DHT22;34679;51.436;-2.518;2022-07-30T12:12:22;23.40;99.90
48860;DHT22;34679;51.436;-2.518;2022-07-30T12:14:48;23.40;99.90
48860;DHT22;34679;51.436;-2.518;2022-07-30T12:17:14;23.50;99.90
48860;DHT22;34679;51.436;-2.518;2022-07-30T12:19:43;23.50;99.90
48860;DHT22;34679;51.436;-2.518;2022-07-30T12:22:09;23.50;99.90
48860;DHT22;34679;51.436;-2.518;2022-07-30T12:24:35;24.10;99.90
48860;DHT22;34679;51.436;-2.518;2022-07-30T12:27:04;24.30;99.90
48860;DHT22;34679;51.436;-2.518;2022-07-30T12:29:30;24.10;99.90
48860;DHT22;34679;51.436;-2.518;2022-07-30T12:31:58;23.70;99.90
48860;DHT22;34679;51.436;-2.518;2022-07-30T12:34:25;23.50;99.90
48860;DHT22;34679;51.436;-2.518;2022-07-30T12:36:50;23.30;99.90
48860;DHT22;34679;51.436;-2.518;2022-07-30T12:39:17;23.00;99.90
48860;DHT22;34679;51.436;-2.518;2022-07-30T12:41:50;22.90;99.90
48860;DHT22;34679;51.436;-2.518;2022-07-30T12:44:36;23.00;99.90
48860;DHT22;34679;51.436;-2.518;2022-07-30T12:47:16;23.40;99.90
48860;DHT22;34679;51.436;-2.518;2022-07-30T12:49:43;24.00;99.90
48860;DHT22;34679;51.436;-2.518;2022-07-30T12:52:09;24.30;99.90
48860;DHT22;34679;51.436;-2.518;2022-07-30T12:54:34;24.10;99.90
48860;DHT22;34679;51.436;-2.518;2022-07-30T12:57:01;24.20;99.90
48860;DHT22;34679;51.436;-2.518;2022-07-30T12:59:27;24.30;99.90
48860;DHT22;34679;51.436;-2.518;2022-07-30T13:01:53;24.60;99.90
48860;DHT22;34679;51.436;-2.518;2022-07-30T13:04:20;24.60;99.90
48860;DHT22;34679;51.436;-2.518;2022-07-30T13:09:30;24.80;99.90
48860;DHT22;34679;51.436;-2.518;2022-07-30T13:11:55;25.00;99.90
48860;DHT22;34679;51.436;-2.518;2022-07-30T13:14:21;24.60;99.90
48860;DHT22;34679;51.436;-2.518;2022-07-30T13:16:46;24.30;99.90
48860;DHT22;34679;51.436;-2.518;2022-07-30T13:19:12;24.30;99.90
48860;DHT22;34679;51.436;-2.518;2022-07-30T13:21:38;24.40;99.90
48860;DHT22;34679;51.436;-2.518;2022-07-30T13:24:04;24.40;99.90
48860;DHT22;34679;51.436;-2.518;2022-07-30T13:26:30;24.80;99.90
48860;DHT22;34679;51.436;-2.518;2022-07-30T13:28:56;24.10;99.90
48860;DHT22;34679;51.436;-2.518;2022-07-30T13:31:22;24.30;99.90
48860;DHT22;34679;51.436;-2.518;2022-07-30T13:33:47;23.90;99.90
48860;DHT22;34679;51.436;-2.518;2022-07-30T13:36:14;23.90;99.90
48860;DHT22;34679;51.436;-2.518;2022-07-30T13:38:39;24.10;99.90
48860;DHT22;34679;51.436;-2.518;2022-07-30T13:41:05;24.20;99.90
48860;DHT22;34679;51.436;-2.518;2022-07-30T13:43:31;24.30;99.90
48860;DHT22;34679;51.436;-2.518;2022-07-30T13:45:57;24.50;99.90
48860;DHT22;34679;51.436;-2.518;2022-07-30T13:48:22;24.80;99.90
48860;DHT22;34679;51.436;-2.518;2022-07-30T13:50:48;25.00;99.90
48860;DHT22;34679;51.436;-2.518;2022-07-30T13:53:14;25.00;99.90
48860;DHT22;34679;51.436;-2.518;2022-07-30T13:55:40;24.80;99.90
48860;DHT22;34679;51.436;-2.518;2022-07-30T13:58:07;24.70;99.90
48860;DHT22;34679;51.436;-2.518;2022-07-30T14:00:33;24.40;99.90
48860;DHT22;34679;51.436;-2.518;2022-07-30T14:03:04;24.10;99.90
48860;DHT22;34679;51.436;-2.518;2022-07-30T14:05:30;23.90;99.90
48860;DHT22;34679;51.436;-2.518;2022-07-30T14:07:57;24.10;99.90
48860;DHT22;34679;51.436;-2.518;2022-07-30T14:10:22;24.00;99.90
48860;DHT22;34679;51.436;-2.518;2022-07-30T14:12:52;23.80;99.90
48860;DHT22;34679;51.436;-2.518;2022-07-30T14:15:24;24.00;99.90
48860;DHT22;34679;51.436;-2.518;2022-07-30T14:17:50;23.90;99.90
48860;DHT22;34679;51.436;-2.518;2022-07-30T14:20:16;23.60;99.90
48860;DHT22;34679;51.436;-2.518;2022-07-30T14:22:42;23.50;99.90
48860;DHT22;34679;51.436;-2.518;2022-07-30T14:25:08;23.90;99.90
48860;DHT22;34679;51.436;-2.518;2022-07-30T14:27:34;23.90;99.90
48860;DHT22;34679;51.436;-2.518;2022-07-30T14:30:00;23.90;99.90
48860;DHT22;34679;51.436;-2.518;2022-07-30T14:32:26;23.90;99.90
48860;DHT22;34679;51.436;-2.518;2022-07-30T14:34:52;23.60;99.90
48860;DHT22;34679;51.436;-2.518;2022-07-30T14:37:17;23.40;99.90
48860;DHT22;34679;51.436;-2.518;2022-07-30T14:39:43;23.10;99.90
48860;DHT22;34679;51.436;-2.518;2022-07-30T14:42:08;23.30;99.90
48860;DHT22;34679;51.436;-2.518;2022-07-30T14:44:34;23.10;99.90
48860;DHT22;34679;51.436;-2.518;2022-07-30T14:46:59;23.30;99.90
48860;DHT22;34679;51.436;-2.518;2022-07-30T14:49:25;23.40;99.90
48860;DHT22;34679;51.436;-2.518;2022-07-30T14:51:51;23.20;99.90
48860;DHT22;34679;51.436;-2.518;2022-07-30T14:54:16;23.40;99.90
48860;DHT22;34679;51.436;-2.518;2022-07-30T14:56:42;23.30;99.90
48860;DHT22;34679;51.436;-2.518;2022-07-30T14:59:08;23.40;99.90
48860;DHT22;34679;51.436;-2.518;2022-07-30T15:01:33;23.40;99.90
48860;DHT22;34679;51.436;-2.518;2022-07-30T15:03:59;23.40;99.90
48860;DHT22;34679;51.436;-2.518;2022-07-30T15:06:25;23.50;99.90
48860;DHT22;34679;51.436;-2.518;2022-07-30T15:08:51;23.70;99.90
48860;DHT22;34679;51.436;-2.518;2022-07-30T15:11:17;23.70;99.90
48860;DHT22;34679;51.436;-2.518;2022-07-30T15:13:43;23.90;99.90
48860;DHT22;34679;51.436;-2.518;2022-07-30T15:16:08;23.70;99.90
48860;DHT22;34679;51.436;-2.518;2022-07-30T15:18:34;23.30;99.90
48860;DHT22;34679;51.436;-2.518;2022-07-30T15:20:59;23.20;99.90
48860;DHT22;34679;51.436;-2.518;2022-07-30T15:23:25;23.10;99.90
48860;DHT22;34679;51.436;-2.518;2022-07-30T15:25:51;23.50;99.90
48860;DHT22;34679;51.436;-2.518;2022-07-30T15:28:16;23.70;99.90
48860;DHT22;34679;51.436;-2.518;2022-07-30T15:30:42;23.70;99.90
48860;DHT22;34679;51.436;-2.518;2022-07-30T15:33:07;23.50;99.90
48860;DHT22;34679;51.436;-2.518;2022-07-30T15:35:33;23.60;99.90
48860;DHT22;34679;51.436;-2.518;2022-07-30T15:37:59;23.50;99.90
48860;DHT22;34679;51.436;-2.518;2022-07-30T15:40:24;23.40;99.90
48860;DHT22;34679;51.436;-2.518;2022-07-30T15:42:50;23.50;99.90
48860;DHT22;34679;51.436;-2.518;2022-07-30T15:45:15;23.30;99.90
48860;DHT22;34679;51.436;-2.518;2022-07-30T15:47:41;23.50;99.90
48860;DHT22;34679;51.436;-2.518;2022-07-30T15:50:07;23.10;99.90
48860;DHT22;34679;51.436;-2.518;2022-07-30T15:52:33;23.40;99.90
48860;DHT22;34679;51.436;-2.518;2022-07-30T15:55:01;23.50;99.90